sensor_id;sensor_type;location;lat;lon;timestamp;P1;durP1;ratioP1;P2;durP2;ratioP2
41623;SDS011;27319;50.306;18.926;2022-09-09T00:05:21;9.63;;;5.90;;
41623;SDS011;27319;50.306;18.926;2022-09-09T00:08:43;11.55;;;6.57;;
41623;SDS011;27319;50.306;18.926;2022-09-09T00:11:53;14.23;;;7.38;;
41623;SDS011;27319;50.306;18.926;2022-09-09T00:15:11;10.57;;;7.03;;
41623;SDS011;27319;50.306;18.926;2022-09-09T00:18:17;10.60;;;7.15;;
41623;SDS011;27319;50.306;18.926;2022-09-09T00:21:38;11.88;;;8.32;;
41623;SDS011;27319;50.306;18.926;2022-09-09T00:27:51;9.80;;;8.38;;
41623;SDS011;27319;50.306;18.926;2022-09-09T00:30:52;12.95;;;9.07;;
41623;SDS011;27319;50.306;18.926;2022-09-09T00:33:53;11.40;;;9.30;;
41623;SDS011;27319;50.306;18.926;2022-09-09T00:36:58;15.35;;;9.27;;
41623;SDS011;27319;50.306;18.926;2022-09-09T00:40:01;11.77;;;9.32;;
41623;SDS011;27319;50.306;18.926;2022-09-09T00:46:34;15.10;;;10.20;;
41623;SDS011;27319;50.306;18.926;2022-09-09T00:53:36;13.98;;;10.45;;
41623;SDS011;27319;50.306;18.926;2022-09-09T01:06:38;17.48;;;14.82;;
41623;SDS011;27319;50.306;18.926;2022-09-09T01:12:52;24.17;;;14.93;;
41623;SDS011;27319;50.306;18.926;2022-09-09T01:15:57;21.02;;;14.65;;
41623;SDS011;27319;50.306;18.926;2022-09-09T01:19:00;21.23;;;14.48;;
41623;SDS011;27319;50.306;18.926;2022-09-09T01:22:05;22.35;;;15.05;;
41623;SDS011;27319;50.306;18.926;2022-09-09T01:28:45;17.10;;;13.80;;
41623;SDS011;27319;50.306;18.926;2022-09-09T01:31:53;21.13;;;13.45;;
41623;SDS011;27319;50.306;18.926;2022-09-09T01:34:59;17.77;;;14.65;;
41623;SDS011;27319;50.306;18.926;2022-09-09T01:38:00;21.50;;;17.50;;
41623;SDS011;27319;50.306;18.926;2022-09-09T01:41:01;20.80;;;15.70;;
41623;SDS011;27319;50.306;18.926;2022-09-09T01:44:03;23.25;;;16.35;;
41623;SDS011;27319;50.306;18.926;2022-09-09T01:47:04;23.25;;;16.63;;
41623;SDS011;27319;50.306;18.926;2022-09-09T01:50:06;21.08;;;16.92;;
41623;SDS011;27319;50.306;18.926;2022-09-09T01:53:11;21.55;;;18.05;;
41623;SDS011;27319;50.306;18.926;2022-09-09T01:56:22;19.10;;;16.33;;
41623;SDS011;27319;50.306;18.926;2022-09-09T01:59:41;22.00;;;17.13;;
41623;SDS011;27319;50.306;18.926;2022-09-09T02:03:16;20.98;;;15.68;;
41623;SDS011;27319;50.306;18.926;2022-09-09T02:06:35;19.38;;;15.88;;
41623;SDS011;27319;50.306;18.926;2022-09-09T02:09:38;18.63;;;15.43;;
41623;SDS011;27319;50.306;18.926;2022-09-09T02:12:42;18.40;;;16.17;;
41623;SDS011;27319;50.306;18.926;2022-09-09T02:19:06;17.75;;;14.90;;
41623;SDS011;27319;50.306;18.926;2022-09-09T02:22:09;18.50;;;15.93;;
41623;SDS011;27319;50.306;18.926;2022-09-09T02:25:10;17.80;;;15.80;;
41623;SDS011;27319;50.306;18.926;2022-09-09T02:28:15;20.00;;;16.10;;
41623;SDS011;27319;50.306;18.926;2022-09-09T02:31:18;17.95;;;16.23;;
41623;SDS011;27319;50.306;18.926;2022-09-09T02:34:22;20.92;;;15.13;;
41623;SDS011;27319;50.306;18.926;2022-09-09T02:37:26;19.75;;;15.57;;
41623;SDS011;27319;50.306;18.926;2022-09-09T02:40:35;20.35;;;14.57;;
41623;SDS011;27319;50.306;18.926;2022-09-09T02:43:36;22.92;;;15.35;;
41623;SDS011;27319;50.306;18.926;2022-09-09T02:50:02;19.80;;;15.60;;
41623;SDS011;27319;50.306;18.926;2022-09-09T02:56:21;22.52;;;14.38;;
41623;SDS011;27319;50.306;18.926;2022-09-09T02:59:29;19.15;;;14.80;;
41623;SDS011;27319;50.306;18.926;2022-09-09T03:02:31;16.67;;;14.60;;
41623;SDS011;27319;50.306;18.926;2022-09-09T03:05:32;19.00;;;15.25;;
41623;SDS011;27319;50.306;18.926;2022-09-09T03:08:32;17.98;;;14.65;;
41623;SDS011;27319;50.306;18.926;2022-09-09T03:11:34;16.95;;;14.13;;
41623;SDS011;27319;50.306;18.926;2022-09-09T03:14:35;18.55;;;13.85;;
41623;SDS011;27319;50.306;18.926;2022-09-09T03:17:36;18.95;;;13.73;;
41623;SDS011;27319;50.306;18.926;2022-09-09T03:20:37;14.65;;;12.85;;
41623;SDS011;27319;50.306;18.926;2022-09-09T03:23:38;16.45;;;13.00;;
41623;SDS011;27319;50.306;18.926;2022-09-09T03:26:39;15.05;;;13.02;;
41623;SDS011;27319;50.306;18.926;2022-09-09T03:29:41;19.63;;;14.07;;
41623;SDS011;27319;50.306;18.926;2022-09-09T03:32:42;15.85;;;12.50;;
41623;SDS011;27319;50.306;18.926;2022-09-09T03:35:46;14.75;;;13.15;;
41623;SDS011;27319;50.306;18.926;2022-09-09T03:38:50;14.80;;;13.15;;
41623;SDS011;27319;50.306;18.926;2022-09-09T03:41:51;14.75;;;13.10;;
41623;SDS011;27319;50.306;18.926;2022-09-09T03:44:52;20.20;;;12.80;;
41623;SDS011;27319;50.306;18.926;2022-09-09T03:47:53;18.00;;;13.10;;
41623;SDS011;27319;50.306;18.926;2022-09-09T03:50:54;15.75;;;13.50;;
41623;SDS011;27319;50.306;18.926;2022-09-09T03:53:56;12.90;;;11.55;;
41623;SDS011;27319;50.306;18.926;2022-09-09T03:56:58;15.10;;;12.27;;
41623;SDS011;27319;50.306;18.926;2022-09-09T03:59:59;13.60;;;12.20;;
41623;SDS011;27319;50.306;18.926;2022-09-09T04:03:01;13.98;;;11.70;;
41623;SDS011;27319;50.306;18.926;2022-09-09T04:06:03;12.07;;;10.88;;
41623;SDS011;27319;50.306;18.926;2022-09-09T04:09:05;13.20;;;10.57;;
41623;SDS011;27319;50.306;18.926;2022-09-09T04:12:06;12.05;;;10.75;;
41623;SDS011;27319;50.306;18.926;2022-09-09T04:15:07;12.07;;;10.38;;
41623;SDS011;27319;50.306;18.926;2022-09-09T04:18:08;11.70;;;9.88;;
41623;SDS011;27319;50.306;18.926;2022-09-09T04:21:10;12.70;;;10.52;;
41623;SDS011;27319;50.306;18.926;2022-09-09T04:24:12;11.57;;;10.38;;
41623;SDS011;27319;50.306;18.926;2022-09-09T04:27:13;16.45;;;11.57;;
41623;SDS011;27319;50.306;18.926;2022-09-09T04:30:14;13.15;;;11.50;;
41623;SDS011;27319;50.306;18.926;2022-09-09T04:33:15;12.25;;;10.88;;
41623;SDS011;27319;50.306;18.926;2022-09-09T04:36:17;12.27;;;10.98;;
41623;SDS011;27319;50.306;18.926;2022-09-09T04:39:19;12.52;;;11.30;;
41623;SDS011;27319;50.306;18.926;2022-09-09T04:42:20;13.50;;;12.07;;
41623;SDS011;27319;50.306;18.926;2022-09-09T04:45:21;12.88;;;11.57;;
41623;SDS011;27319;50.306;18.926;2022-09-09T04:48:22;12.60;;;11.30;;
41623;SDS011;27319;50.306;18.926;2022-09-09T04:51:23;16.77;;;11.63;;
41623;SDS011;27319;50.306;18.926;2022-09-09T04:54:24;12.43;;;11.07;;
41623;SDS011;27319;50.306;18.926;2022-09-09T04:57:25;12.68;;;11.35;;
41623;SDS011;27319;50.306;18.926;2022-09-09T05:00:26;13.25;;;11.88;;
41623;SDS011;27319;50.306;18.926;2022-09-09T05:03:28;19.25;;;11.45;;
41623;SDS011;27319;50.306;18.926;2022-09-09T05:06:29;15.02;;;13.43;;
41623;SDS011;27319;50.306;18.926;2022-09-09T05:09:31;18.55;;;12.60;;
41623;SDS011;27319;50.306;18.926;2022-09-09T05:12:32;16.42;;;13.80;;
41623;SDS011;27319;50.306;18.926;2022-09-09T05:15:33;24.85;;;16.23;;
41623;SDS011;27319;50.306;18.926;2022-09-09T05:18:34;22.77;;;14.57;;
41623;SDS011;27319;50.306;18.926;2022-09-09T05:21:35;18.58;;;13.98;;
41623;SDS011;27319;50.306;18.926;2022-09-09T05:24:36;22.45;;;14.85;;
41623;SDS011;27319;50.306;18.926;2022-09-09T05:27:37;20.75;;;14.02;;
41623;SDS011;27319;50.306;18.926;2022-09-09T05:30:38;24.00;;;15.30;;
41623;SDS011;27319;50.306;18.926;2022-09-09T05:33:39;24.10;;;17.02;;
41623;SDS011;27319;50.306;18.926;2022-09-09T05:36:43;25.08;;;16.23;;
41623;SDS011;27319;50.306;18.926;2022-09-09T05:39:44;23.23;;;13.77;;
41623;SDS011;27319;50.306;18.926;2022-09-09T05:42:45;26.20;;;14.30;;
41623;SDS011;27319;50.306;18.926;2022-09-09T05:45:58;25.00;;;13.73;;
41623;SDS011;27319;50.306;18.926;2022-09-09T05:49:02;21.55;;;12.10;;
41623;SDS011;27319;50.306;18.926;2022-09-09T05:52:03;18.83;;;12.95;;
41623;SDS011;27319;50.306;18.926;2022-09-09T05:55:05;19.45;;;13.15;;
41623;SDS011;27319;50.306;18.926;2022-09-09T05:58:07;19.48;;;12.95;;
41623;SDS011;27319;50.306;18.926;2022-09-09T06:01:12;28.67;;;13.73;;
41623;SDS011;27319;50.306;18.926;2022-09-09T06:04:16;28.45;;;13.88;;
41623;SDS011;27319;50.306;18.926;2022-09-09T06:07:18;24.02;;;13.15;;
41623;SDS011;27319;50.306;18.926;2022-09-09T06:10:19;22.42;;;13.65;;
41623;SDS011;27319;50.306;18.926;2022-09-09T06:13:20;21.52;;;14.07;;
41623;SDS011;27319;50.306;18.926;2022-09-09T06:16:22;20.75;;;13.18;;
41623;SDS011;27319;50.306;18.926;2022-09-09T06:19:24;19.60;;;10.90;;
41623;SDS011;27319;50.306;18.926;2022-09-09T06:22:27;16.48;;;10.63;;
41623;SDS011;27319;50.306;18.926;2022-09-09T06:25:28;23.27;;;11.98;;
41623;SDS011;27319;50.306;18.926;2022-09-09T06:28:28;23.92;;;10.85;;
41623;SDS011;27319;50.306;18.926;2022-09-09T06:31:30;32.30;;;11.18;;
41623;SDS011;27319;50.306;18.926;2022-09-09T06:34:32;13.15;;;8.88;;
41623;SDS011;27319;50.306;18.926;2022-09-09T06:37:33;13.75;;;8.88;;
41623;SDS011;27319;50.306;18.926;2022-09-09T06:40:33;18.05;;;11.73;;
41623;SDS011;27319;50.306;18.926;2022-09-09T06:43:35;23.63;;;13.63;;
41623;SDS011;27319;50.306;18.926;2022-09-09T06:46:36;20.70;;;8.82;;
41623;SDS011;27319;50.306;18.926;2022-09-09T06:49:38;15.73;;;9.05;;
41623;SDS011;27319;50.306;18.926;2022-09-09T06:52:39;14.65;;;7.63;;
41623;SDS011;27319;50.306;18.926;2022-09-09T06:55:40;9.52;;;7.63;;
41623;SDS011;27319;50.306;18.926;2022-09-09T06:58:44;11.90;;;8.60;;
41623;SDS011;27319;50.306;18.926;2022-09-09T07:01:45;11.20;;;7.97;;
41623;SDS011;27319;50.306;18.926;2022-09-09T07:04:52;27.88;;;8.98;;
41623;SDS011;27319;50.306;18.926;2022-09-09T07:07:53;14.65;;;7.38;;
41623;SDS011;27319;50.306;18.926;2022-09-09T07:10:54;8.57;;;5.90;;
41623;SDS011;27319;50.306;18.926;2022-09-09T07:13:55;13.13;;;7.30;;
41623;SDS011;27319;50.306;18.926;2022-09-09T07:16:57;11.50;;;7.00;;
41623;SDS011;27319;50.306;18.926;2022-09-09T07:19:58;11.70;;;5.90;;
41623;SDS011;27319;50.306;18.926;2022-09-09T07:22:59;8.85;;;5.88;;
41623;SDS011;27319;50.306;18.926;2022-09-09T07:26:00;8.65;;;4.28;;
41623;SDS011;27319;50.306;18.926;2022-09-09T07:29:01;8.05;;;5.35;;
41623;SDS011;27319;50.306;18.926;2022-09-09T07:32:02;9.15;;;4.43;;
41623;SDS011;27319;50.306;18.926;2022-09-09T07:35:04;6.85;;;4.43;;
41623;SDS011;27319;50.306;18.926;2022-09-09T07:38:06;8.75;;;4.28;;
41623;SDS011;27319;50.306;18.926;2022-09-09T07:41:07;10.07;;;4.40;;
41623;SDS011;27319;50.306;18.926;2022-09-09T07:44:14;9.52;;;4.55;;
41623;SDS011;27319;50.306;18.926;2022-09-09T07:47:16;8.75;;;5.20;;
41623;SDS011;27319;50.306;18.926;2022-09-09T07:50:17;8.80;;;5.10;;
41623;SDS011;27319;50.306;18.926;2022-09-09T07:53:18;6.07;;;4.95;;
41623;SDS011;27319;50.306;18.926;2022-09-09T07:56:20;9.55;;;5.07;;
41623;SDS011;27319;50.306;18.926;2022-09-09T07:59:24;7.05;;;4.60;;
41623;SDS011;27319;50.306;18.926;2022-09-09T08:02:25;5.95;;;4.75;;
41623;SDS011;27319;50.306;18.926;2022-09-09T08:05:28;8.68;;;4.78;;
41623;SDS011;27319;50.306;18.926;2022-09-09T08:08:29;5.63;;;4.65;;
41623;SDS011;27319;50.306;18.926;2022-09-09T08:11:30;20.02;;;7.88;;
41623;SDS011;27319;50.306;18.926;2022-09-09T08:14:31;8.60;;;5.07;;
41623;SDS011;27319;50.306;18.926;2022-09-09T08:17:32;10.93;;;5.30;;
41623;SDS011;27319;50.306;18.926;2022-09-09T08:20:35;7.53;;;5.20;;
41623;SDS011;27319;50.306;18.926;2022-09-09T08:23:37;7.72;;;5.40;;
41623;SDS011;27319;50.306;18.926;2022-09-09T08:26:43;6.38;;;4.60;;
41623;SDS011;27319;50.306;18.926;2022-09-09T08:29:46;8.75;;;4.65;;
41623;SDS011;27319;50.306;18.926;2022-09-09T08:32:48;7.43;;;4.00;;
41623;SDS011;27319;50.306;18.926;2022-09-09T08:35:51;4.72;;;3.58;;
41623;SDS011;27319;50.306;18.926;2022-09-09T08:38:54;5.38;;;3.70;;
41623;SDS011;27319;50.306;18.926;2022-09-09T08:51:43;7.20;;;3.40;;
41623;SDS011;27319;50.306;18.926;2022-09-09T08:54:44;4.55;;;2.97;;
41623;SDS011;27319;50.306;18.926;2022-09-09T08:57:46;7.38;;;3.22;;
41623;SDS011;27319;50.306;18.926;2022-09-09T09:05:13;8.05;;;3.40;;
41623;SDS011;27319;50.306;18.926;2022-09-09T09:11:37;4.82;;;3.60;;
41623;SDS011;27319;50.306;18.926;2022-09-09T09:14:39;4.95;;;3.00;;
41623;SDS011;27319;50.306;18.926;2022-09-09T09:17:41;5.40;;;2.97;;
41623;SDS011;27319;50.306;18.926;2022-09-09T09:20:50;6.30;;;2.92;;
41623;SDS011;27319;50.306;18.926;2022-09-09T09:23:59;4.43;;;2.88;;
41623;SDS011;27319;50.306;18.926;2022-09-09T09:27:06;6.07;;;3.15;;
41623;SDS011;27319;50.306;18.926;2022-09-09T09:30:14;9.55;;;3.55;;
41623;SDS011;27319;50.306;18.926;2022-09-09T09:33:20;8.18;;;3.65;;
41623;SDS011;27319;50.306;18.926;2022-09-09T09:36:24;5.85;;;3.28;;
41623;SDS011;27319;50.306;18.926;2022-09-09T09:39:34;7.55;;;2.90;;
41623;SDS011;27319;50.306;18.926;2022-09-09T09:42:37;8.80;;;3.17;;
41623;SDS011;27319;50.306;18.926;2022-09-09T09:45:47;7.35;;;2.70;;
41623;SDS011;27319;50.306;18.926;2022-09-09T09:48:58;3.70;;;2.08;;
41623;SDS011;27319;50.306;18.926;2022-09-09T09:52:01;5.22;;;2.03;;
41623;SDS011;27319;50.306;18.926;2022-09-09T09:55:04;6.60;;;2.15;;
41623;SDS011;27319;50.306;18.926;2022-09-09T09:58:13;9.18;;;2.92;;
41623;SDS011;27319;50.306;18.926;2022-09-09T10:01:32;3.72;;;2.22;;
41623;SDS011;27319;50.306;18.926;2022-09-09T10:04:34;7.07;;;2.63;;
41623;SDS011;27319;50.306;18.926;2022-09-09T10:07:35;5.78;;;2.60;;
41623;SDS011;27319;50.306;18.926;2022-09-09T10:20:24;2.75;;;1.80;;
41623;SDS011;27319;50.306;18.926;2022-09-09T10:30:20;5.97;;;2.08;;
41623;SDS011;27319;50.306;18.926;2022-09-09T10:36:43;4.78;;;2.15;;
41623;SDS011;27319;50.306;18.926;2022-09-09T10:39:50;5.15;;;1.77;;
41623;SDS011;27319;50.306;18.926;2022-09-09T10:43:07;2.08;;;1.50;;
41623;SDS011;27319;50.306;18.926;2022-09-09T10:49:57;2.75;;;1.63;;
41623;SDS011;27319;50.306;18.926;2022-09-09T10:53:06;3.35;;;2.00;;
41623;SDS011;27319;50.306;18.926;2022-09-09T10:56:16;4.88;;;2.00;;
41623;SDS011;27319;50.306;18.926;2022-09-09T10:59:22;3.88;;;1.83;;
41623;SDS011;27319;50.306;18.926;2022-09-09T11:02:27;3.63;;;1.73;;
41623;SDS011;27319;50.306;18.926;2022-09-09T11:05:42;4.10;;;1.55;;
41623;SDS011;27319;50.306;18.926;2022-09-09T11:08:46;3.78;;;1.50;;
41623;SDS011;27319;50.306;18.926;2022-09-09T11:11:54;2.15;;;1.35;;
41623;SDS011;27319;50.306;18.926;2022-09-09T11:15:01;3.47;;;1.60;;
41623;SDS011;27319;50.306;18.926;2022-09-09T11:18:08;3.25;;;1.52;;
41623;SDS011;27319;50.306;18.926;2022-09-09T11:21:19;2.22;;;1.48;;
41623;SDS011;27319;50.306;18.926;2022-09-09T11:24:38;3.28;;;1.50;;
41623;SDS011;27319;50.306;18.926;2022-09-09T11:41:11;2.15;;;1.20;;
41623;SDS011;27319;50.306;18.926;2022-09-09T11:44:18;3.58;;;1.30;;
41623;SDS011;27319;50.306;18.926;2022-09-09T11:50:34;1.83;;;1.40;;
41623;SDS011;27319;50.306;18.926;2022-09-09T11:53:53;2.70;;;1.40;;
41623;SDS011;27319;50.306;18.926;2022-09-09T11:59:57;7.55;;;2.30;;
41623;SDS011;27319;50.306;18.926;2022-09-09T12:02:59;2.55;;;1.42;;
41623;SDS011;27319;50.306;18.926;2022-09-09T12:06:08;4.93;;;1.40;;
41623;SDS011;27319;50.306;18.926;2022-09-09T12:12:28;4.00;;;1.40;;
41623;SDS011;27319;50.306;18.926;2022-09-09T12:15:34;3.38;;;1.70;;
41623;SDS011;27319;50.306;18.926;2022-09-09T12:18:36;4.10;;;1.63;;
41623;SDS011;27319;50.306;18.926;2022-09-09T12:21:44;5.43;;;1.73;;
41623;SDS011;27319;50.306;18.926;2022-09-09T12:29:10;4.47;;;1.70;;
41623;SDS011;27319;50.306;18.926;2022-09-09T12:32:16;5.57;;;2.25;;
41623;SDS011;27319;50.306;18.926;2022-09-09T12:35:23;3.15;;;1.70;;
41623;SDS011;27319;50.306;18.926;2022-09-09T12:38:36;3.95;;;1.92;;
41623;SDS011;27319;50.306;18.926;2022-09-09T12:41:39;5.20;;;1.65;;
41623;SDS011;27319;50.306;18.926;2022-09-09T12:44:40;4.32;;;1.58;;
41623;SDS011;27319;50.306;18.926;2022-09-09T12:48:05;3.30;;;1.50;;
41623;SDS011;27319;50.306;18.926;2022-09-09T12:51:33;5.65;;;1.98;;
41623;SDS011;27319;50.306;18.926;2022-09-09T12:54:35;2.35;;;1.88;;
41623;SDS011;27319;50.306;18.926;2022-09-09T12:57:38;3.72;;;1.80;;
41623;SDS011;27319;50.306;18.926;2022-09-09T13:00:48;6.32;;;2.30;;
41623;SDS011;27319;50.306;18.926;2022-09-09T13:03:52;4.22;;;1.75;;
41623;SDS011;27319;50.306;18.926;2022-09-09T13:06:53;7.05;;;1.83;;
41623;SDS011;27319;50.306;18.926;2022-09-09T13:10:05;4.95;;;1.77;;
41623;SDS011;27319;50.306;18.926;2022-09-09T13:13:17;5.00;;;1.90;;
41623;SDS011;27319;50.306;18.926;2022-09-09T13:16:31;3.35;;;1.70;;
41623;SDS011;27319;50.306;18.926;2022-09-09T13:19:35;6.90;;;1.75;;
41623;SDS011;27319;50.306;18.926;2022-09-09T13:22:38;3.08;;;1.80;;
41623;SDS011;27319;50.306;18.926;2022-09-09T13:25:41;2.05;;;1.23;;
41623;SDS011;27319;50.306;18.926;2022-09-09T13:28:53;4.50;;;2.53;;
41623;SDS011;27319;50.306;18.926;2022-09-09T13:32:16;2.88;;;1.85;;
41623;SDS011;27319;50.306;18.926;2022-09-09T13:35:23;5.38;;;1.50;;
41623;SDS011;27319;50.306;18.926;2022-09-09T13:38:25;6.43;;;2.03;;
41623;SDS011;27319;50.306;18.926;2022-09-09T13:41:42;5.55;;;1.73;;
41623;SDS011;27319;50.306;18.926;2022-09-09T13:44:49;2.72;;;1.63;;
41623;SDS011;27319;50.306;18.926;2022-09-09T13:47:49;4.47;;;2.28;;
41623;SDS011;27319;50.306;18.926;2022-09-09T13:51:03;2.60;;;1.50;;
41623;SDS011;27319;50.306;18.926;2022-09-09T13:54:09;3.30;;;1.60;;
41623;SDS011;27319;50.306;18.926;2022-09-09T13:57:18;3.55;;;1.77;;
41623;SDS011;27319;50.306;18.926;2022-09-09T14:00:21;3.08;;;1.85;;
41623;SDS011;27319;50.306;18.926;2022-09-09T14:03:22;3.90;;;1.80;;
41623;SDS011;27319;50.306;18.926;2022-09-09T14:06:23;4.93;;;1.63;;
41623;SDS011;27319;50.306;18.926;2022-09-09T14:09:24;5.65;;;2.05;;
41623;SDS011;27319;50.306;18.926;2022-09-09T14:12:25;5.70;;;1.65;;
41623;SDS011;27319;50.306;18.926;2022-09-09T14:15:26;2.90;;;1.58;;
41623;SDS011;27319;50.306;18.926;2022-09-09T14:18:27;6.75;;;1.60;;
41623;SDS011;27319;50.306;18.926;2022-09-09T14:21:28;2.03;;;1.23;;
41623;SDS011;27319;50.306;18.926;2022-09-09T14:24:29;4.93;;;2.03;;
41623;SDS011;27319;50.306;18.926;2022-09-09T14:27:30;5.15;;;1.95;;
41623;SDS011;27319;50.306;18.926;2022-09-09T14:30:30;3.00;;;1.60;;
41623;SDS011;27319;50.306;18.926;2022-09-09T14:33:31;4.20;;;1.95;;
41623;SDS011;27319;50.306;18.926;2022-09-09T14:36:33;6.93;;;1.70;;
41623;SDS011;27319;50.306;18.926;2022-09-09T14:39:34;3.08;;;1.52;;
41623;SDS011;27319;50.306;18.926;2022-09-09T14:42:34;4.15;;;1.50;;
41623;SDS011;27319;50.306;18.926;2022-09-09T14:45:35;3.92;;;1.70;;
41623;SDS011;27319;50.306;18.926;2022-09-09T14:48:37;3.53;;;1.98;;
41623;SDS011;27319;50.306;18.926;2022-09-09T14:51:40;5.43;;;1.75;;
41623;SDS011;27319;50.306;18.926;2022-09-09T14:54:41;4.35;;;2.10;;
41623;SDS011;27319;50.306;18.926;2022-09-09T14:57:42;3.75;;;2.00;;
41623;SDS011;27319;50.306;18.926;2022-09-09T15:00:43;4.45;;;1.90;;
41623;SDS011;27319;50.306;18.926;2022-09-09T15:03:54;4.00;;;1.67;;
41623;SDS011;27319;50.306;18.926;2022-09-09T15:06:59;2.63;;;1.80;;
41623;SDS011;27319;50.306;18.926;2022-09-09T15:10:00;3.45;;;1.52;;
41623;SDS011;27319;50.306;18.926;2022-09-09T15:13:01;3.50;;;1.88;;
41623;SDS011;27319;50.306;18.926;2022-09-09T15:19:06;6.07;;;2.40;;
41623;SDS011;27319;50.306;18.926;2022-09-09T15:22:08;3.78;;;1.30;;
41623;SDS011;27319;50.306;18.926;2022-09-09T15:25:08;5.13;;;2.75;;
41623;SDS011;27319;50.306;18.926;2022-09-09T15:28:09;3.55;;;2.85;;
41623;SDS011;27319;50.306;18.926;2022-09-09T15:31:11;3.03;;;1.85;;
41623;SDS011;27319;50.306;18.926;2022-09-09T15:34:17;6.28;;;1.63;;
41623;SDS011;27319;50.306;18.926;2022-09-09T15:37:18;2.00;;;1.67;;
41623;SDS011;27319;50.306;18.926;2022-09-09T15:40:19;7.18;;;1.92;;
41623;SDS011;27319;50.306;18.926;2022-09-09T15:43:20;4.13;;;2.38;;
41623;SDS011;27319;50.306;18.926;2022-09-09T15:46:22;2.50;;;1.55;;
41623;SDS011;27319;50.306;18.926;2022-09-09T15:49:37;4.05;;;2.08;;
41623;SDS011;27319;50.306;18.926;2022-09-09T15:52:39;5.63;;;1.55;;
41623;SDS011;27319;50.306;18.926;2022-09-09T15:55:40;5.68;;;1.45;;
41623;SDS011;27319;50.306;18.926;2022-09-09T15:58:41;6.13;;;1.55;;
41623;SDS011;27319;50.306;18.926;2022-09-09T16:01:44;3.72;;;1.70;;
41623;SDS011;27319;50.306;18.926;2022-09-09T16:04:45;2.63;;;1.85;;
41623;SDS011;27319;50.306;18.926;2022-09-09T16:07:45;4.78;;;1.80;;
41623;SDS011;27319;50.306;18.926;2022-09-09T16:10:48;5.53;;;2.33;;
41623;SDS011;27319;50.306;18.926;2022-09-09T16:13:51;5.10;;;2.63;;
41623;SDS011;27319;50.306;18.926;2022-09-09T16:16:53;7.60;;;3.25;;
41623;SDS011;27319;50.306;18.926;2022-09-09T16:19:53;4.97;;;3.28;;
41623;SDS011;27319;50.306;18.926;2022-09-09T16:22:54;8.40;;;4.35;;
41623;SDS011;27319;50.306;18.926;2022-09-09T16:25:57;6.70;;;3.47;;
41623;SDS011;27319;50.306;18.926;2022-09-09T16:28:59;6.80;;;2.97;;
41623;SDS011;27319;50.306;18.926;2022-09-09T16:32:01;6.15;;;2.70;;
41623;SDS011;27319;50.306;18.926;2022-09-09T16:35:02;4.95;;;2.55;;
41623;SDS011;27319;50.306;18.926;2022-09-09T16:38:03;6.15;;;3.40;;
41623;SDS011;27319;50.306;18.926;2022-09-09T16:41:04;7.30;;;3.75;;
41623;SDS011;27319;50.306;18.926;2022-09-09T16:44:07;8.00;;;3.90;;
41623;SDS011;27319;50.306;18.926;2022-09-09T16:47:10;8.32;;;5.13;;
41623;SDS011;27319;50.306;18.926;2022-09-09T16:50:10;34.80;;;14.57;;
41623;SDS011;27319;50.306;18.926;2022-09-09T16:53:11;27.73;;;13.02;;
41623;SDS011;27319;50.306;18.926;2022-09-09T16:56:16;12.38;;;7.40;;
41623;SDS011;27319;50.306;18.926;2022-09-09T16:59:20;14.23;;;7.97;;
41623;SDS011;27319;50.306;18.926;2022-09-09T17:02:21;12.20;;;7.28;;
41623;SDS011;27319;50.306;18.926;2022-09-09T17:05:22;9.32;;;5.93;;
41623;SDS011;27319;50.306;18.926;2022-09-09T17:08:23;14.02;;;5.05;;
41623;SDS011;27319;50.306;18.926;2022-09-09T17:11:25;8.50;;;3.97;;
41623;SDS011;27319;50.306;18.926;2022-09-09T17:14:26;9.52;;;5.63;;
41623;SDS011;27319;50.306;18.926;2022-09-09T17:17:27;8.45;;;4.88;;
41623;SDS011;27319;50.306;18.926;2022-09-09T17:20:28;9.07;;;3.67;;
41623;SDS011;27319;50.306;18.926;2022-09-09T17:23:29;9.20;;;4.38;;
41623;SDS011;27319;50.306;18.926;2022-09-09T17:26:31;9.57;;;5.50;;
41623;SDS011;27319;50.306;18.926;2022-09-09T17:29:33;11.60;;;4.57;;
41623;SDS011;27319;50.306;18.926;2022-09-09T17:32:36;17.98;;;8.05;;
41623;SDS011;27319;50.306;18.926;2022-09-09T17:35:37;22.98;;;9.65;;
41623;SDS011;27319;50.306;18.926;2022-09-09T17:38:38;23.02;;;8.63;;
41623;SDS011;27319;50.306;18.926;2022-09-09T17:41:39;20.80;;;7.82;;
41623;SDS011;27319;50.306;18.926;2022-09-09T17:44:41;18.60;;;7.55;;
41623;SDS011;27319;50.306;18.926;2022-09-09T17:47:42;17.20;;;8.15;;
41623;SDS011;27319;50.306;18.926;2022-09-09T17:50:43;17.92;;;7.63;;
41623;SDS011;27319;50.306;18.926;2022-09-09T17:53:45;17.20;;;6.85;;
41623;SDS011;27319;50.306;18.926;2022-09-09T17:56:48;12.02;;;5.88;;
41623;SDS011;27319;50.306;18.926;2022-09-09T17:59:50;21.27;;;7.75;;
41623;SDS011;27319;50.306;18.926;2022-09-09T18:02:51;26.15;;;9.20;;
41623;SDS011;27319;50.306;18.926;2022-09-09T18:05:52;25.90;;;9.25;;
41623;SDS011;27319;50.306;18.926;2022-09-09T18:09:00;26.65;;;11.20;;
41623;SDS011;27319;50.306;18.926;2022-09-09T18:12:04;18.38;;;7.93;;
41623;SDS011;27319;50.306;18.926;2022-09-09T18:15:05;22.17;;;8.70;;
41623;SDS011;27319;50.306;18.926;2022-09-09T18:18:07;14.57;;;7.30;;
41623;SDS011;27319;50.306;18.926;2022-09-09T18:21:08;15.15;;;6.68;;
41623;SDS011;27319;50.306;18.926;2022-09-09T18:24:10;17.10;;;7.22;;
41623;SDS011;27319;50.306;18.926;2022-09-09T18:27:12;18.58;;;7.97;;
41623;SDS011;27319;50.306;18.926;2022-09-09T18:30:13;12.63;;;5.95;;
41623;SDS011;27319;50.306;18.926;2022-09-09T18:33:14;13.65;;;6.25;;
41623;SDS011;27319;50.306;18.926;2022-09-09T18:36:16;9.02;;;5.75;;
41623;SDS011;27319;50.306;18.926;2022-09-09T18:39:19;13.15;;;6.38;;
41623;SDS011;27319;50.306;18.926;2022-09-09T18:42:21;14.27;;;6.47;;
41623;SDS011;27319;50.306;18.926;2022-09-09T18:45:22;10.63;;;6.18;;
41623;SDS011;27319;50.306;18.926;2022-09-09T18:48:23;10.30;;;5.65;;
41623;SDS011;27319;50.306;18.926;2022-09-09T18:51:25;11.18;;;6.38;;
41623;SDS011;27319;50.306;18.926;2022-09-09T18:54:28;20.65;;;7.93;;
41623;SDS011;27319;50.306;18.926;2022-09-09T18:57:29;10.55;;;6.60;;
41623;SDS011;27319;50.306;18.926;2022-09-09T19:00:30;15.50;;;6.85;;
41623;SDS011;27319;50.306;18.926;2022-09-09T19:03:33;16.33;;;6.60;;
41623;SDS011;27319;50.306;18.926;2022-09-09T19:06:36;30.83;;;12.73;;
41623;SDS011;27319;50.306;18.926;2022-09-09T19:09:40;29.80;;;12.70;;
41623;SDS011;27319;50.306;18.926;2022-09-09T19:12:41;20.45;;;9.43;;
41623;SDS011;27319;50.306;18.926;2022-09-09T19:15:42;22.08;;;9.15;;
41623;SDS011;27319;50.306;18.926;2022-09-09T19:18:43;21.40;;;9.02;;
41623;SDS011;27319;50.306;18.926;2022-09-09T19:21:46;25.05;;;11.43;;
41623;SDS011;27319;50.306;18.926;2022-09-09T19:24:47;20.85;;;10.70;;
41623;SDS011;27319;50.306;18.926;2022-09-09T19:27:49;18.55;;;9.50;;
41623;SDS011;27319;50.306;18.926;2022-09-09T19:30:50;19.98;;;10.45;;
41623;SDS011;27319;50.306;18.926;2022-09-09T19:33:51;16.55;;;9.43;;
41623;SDS011;27319;50.306;18.926;2022-09-09T19:36:52;22.83;;;10.48;;
41623;SDS011;27319;50.306;18.926;2022-09-09T19:39:53;19.30;;;10.48;;
41623;SDS011;27319;50.306;18.926;2022-09-09T19:42:55;17.92;;;8.70;;
41623;SDS011;27319;50.306;18.926;2022-09-09T19:45:56;14.05;;;8.52;;
41623;SDS011;27319;50.306;18.926;2022-09-09T19:49:02;17.38;;;8.38;;